PS39 weather

Downes Airport
Clymer, Pennsylvania, United States

Public forecast

Using degrees Fahrenheit for public forecast. Weather courtesy of forecast.io.

Closest aviation weather report (METAR) to Downes Airport

Closest report is Indiana County/Jimmy Stewart Fld/ Airport, 6.6 nm (12.3 km) W. Retrieved 2019/10/15 20:35 UTC (0 seconds ago):

KIDI 152035Z AUTO 15008KT 10SM CLR 20/06 A3001 RMK A01

Closest aviation forecast (TAF) to Downes Airport

Closest forecast is John Murtha Johnstown Cambria County Airport, 19.6 nm (36.3 km) SSE. Retrieved 2019/10/15 18:48 UTC (1 hour ago):

TAF KJST 151745Z 1518/1618 17007KT P6SM FEW040 FM160000 15008KT P6SM BKN200 FM160600 17008KT P6SM OVC100 FM161000 17010KT P6SM -SHRA OVC040 FM161200 17010G17KT 3SM -RA BR OVC007 TEMPO 1614/1618 2SM -RA BR OVC003